Latest Coastal Weather Observations for Lihou Reef Lighthouse

IDQ60701

Issued at 8:51 pm EST Thursday 11 February 2016 (issued every 10 minutes, with the page automatically refreshed every 10 minutes)

About coastal observations | Map of coastal stations | Coastal observations for QLD | Marine services | Other Formats
Station Details ID: 200880 Name: LIHOU REEF LIGHTHOUSE Lat: -17.13 Lon: 152.15 Height: 0.0 m
Data from the previous 72 hours. | See also: Recent months at Lihou Reef Lighthouse
Date/Time
EST
Temp

°C
Wind Pressure Rain
since 9am
mm
Weather Cloud Vis
km
Sea
Height
m
Swell
Dir
 
Speed
knots
Gust
knots
hPa Trend Height
m
Period
s
Dir
11/08:30pm 27.7 SE 8 9 1006.5 - - - - - - - - -
11/08:00pm 27.9 SSE 13 19 1006.2 - - - - - - - - -
11/07:30pm 27.8 SSE 17 21 1005.8 - - - - - - - - -
11/07:00pm 29.0 S 13 18 1005.6 - - - - - - - - -
11/06:30pm 28.9 SSE 14 16 1005.4 - - - - - - - - -
11/06:00pm 28.8 SSE 16 19 1004.9 - - - - - - - - -
11/05:30pm 28.9 S 17 19 1004.5 - - - - - - - - -
11/05:00pm 29.3 S 16 19 1004.3 - - - - - - - - -
11/04:30pm 29.1 S 16 20 1004.1 - - - - - - - - -
11/04:00pm 29.1 S 16 18 1003.9 - - - - - - - - -
11/03:30pm 28.9 S 16 19 1003.9 - - - - - - - - -
11/03:00pm 29.0 S 14 16 1004.0 - - - - - - - - -
11/02:30pm 28.9 S 16 19 1003.8 - - - - - - - - -
11/02:00pm 28.8 S 15 18 1004.0 - - - - - - - - -
11/01:30pm 28.7 S 15 17 1004.3 - - - - - - - - -
11/01:00pm 28.8 S 16 19 1004.7 - - - - - - - - -
11/12:30pm 28.8 S 15 18 1005.3 - - - - - - - - -
11/12:00pm 29.0 S 14 18 1005.8 - - - - - - - - -
11/11:30am 28.6 S 12 14 1005.9 - - - - - - - - -
11/11:00am 28.5 S 13 15 1006.0 - - - - - - - - -
11/10:30am 28.7 S 13 15 1006.0 - - - - - - - - -
11/10:00am 28.7 S 11 14 1006.2 - - - - - - - - -
11/09:30am 28.7 S 14 16 1006.3 - - - - - - - - -
11/09:00am 28.6 SSE 13 15 1006.6 - - - - - - - - -
11/08:30am 28.8 SSE 14 17 1006.5 - - - - - - - - -
11/08:00am 28.8 SSE 15 18 1006.4 - - - - - - - - -
11/07:30am 28.7 SSE 16 20 1006.0 - - - - - - - - -
11/07:00am 28.4 SSE 18 22 1005.5 - - - - - - - - -
11/06:30am 28.3 SSE 18 20 1004.9 - - - - - - - - -
11/06:00am 28.2 SSE 18 21 1004.3 - - - - - - - - -
11/05:30am 28.3 SSE 19 22 1004.0 - - - - - - - - -
11/05:00am 28.2 SSE 20 23 1003.6 - - - - - - - - -
11/04:30am 28.1 SSE 21 24 1003.3 - - - - - - - - -
11/04:00am 28.2 SSE 20 23 1003.2 - - - - - - - - -
11/03:30am 28.2 SSE 20 23 1003.2 - - - - - - - - -
11/03:00am 28.3 SSE 19 23 1003.4 - - - - - - - - -
11/02:30am 28.3 SSE 19 22 1003.8 - - - - - - - - -
11/02:00am 28.2 SSE 20 23 1003.8 - - - - - - - - -
11/01:30am 28.3 SSE 19 22 1004.0 - - - - - - - - -
11/01:00am 28.0 SSE 19 23 1004.3 - - - - - - - - -
11/12:30am 27.8 SSE 19 25 1004.6 - - - - - - - - -
11/12:00am 28.3 SSE 20 23 1004.9 - - - - - - - - -
 
Date/Time
EST
Temp

°C
Wind Pressure Rain
since 9am
mm
Weather Cloud Vis
km
Sea
Height
m
Swell
Dir
 
Speed
knots
Gust
knots
hPa Trend Height
m
Period
s
Dir
10/11:30pm 28.5 SSE 20 23 1005.3 - - - - - - - - -
10/11:00pm 28.4 SSE 21 25 1005.4 - - - - - - - - -
10/10:30pm 28.6 S 21 24 1005.7 - - - - - - - - -
10/10:00pm 28.8 SSE 20 23 1005.8 - - - - - - - - -
10/09:30pm 28.6 SSE 22 26 1005.7 - - - - - - - - -
10/09:00pm 28.6 SSE 22 25 1005.6 - - - - - - - - -
10/08:30pm 28.6 SSE 21 26 1005.6 - - - - - - - - -
10/08:00pm 28.4 SSE 22 25 1005.5 - - - - - - - - -
10/07:30pm 28.2 S 24 28 1005.2 - - - - - - - - -
10/07:00pm 28.2 S 21 25 1004.9 - - - - - - - - -
10/06:30pm 28.6 SSE 22 27 1004.4 - - - - - - - - -
10/06:00pm 28.9 S 23 27 1004.0 - - - - - - - - -
10/05:30pm 28.7 S 23 29 1003.5 - - - - - - - - -
10/05:00pm 28.9 SSE 23 27 1003.2 - - - - - - - - -
10/04:30pm 28.9 S 23 28 1003.1 - - - - - - - - -
10/04:00pm 28.8 S 22 26 1002.8 - - - - - - - - -
10/03:30pm 28.6 S 22 27 1002.7 - - - - - - - - -
10/03:00pm 28.7 S 24 27 1002.6 - - - - - - - - -
10/02:30pm 28.8 S 22 27 1002.9 - - - - - - - - -
10/02:00pm 28.4 S 23 26 1002.9 - - - - - - - - -
10/01:30pm 28.4 S 22 25 1003.2 - - - - - - - - -
10/01:00pm 28.3 S 21 26 1003.3 - - - - - - - - -
10/12:30pm 28.6 S 21 25 1003.5 - - - - - - - - -
10/12:00pm 28.6 SSE 21 24 1003.8 - - - - - - - - -
10/11:30am 28.8 SSE 21 24 1004.0 - - - - - - - - -
10/11:00am 28.7 SSE 22 25 1004.3 - - - - - - - - -
10/10:30am 28.9 SSE 23 27 1004.3 - - - - - - - - -
10/10:00am 28.6 SSE 24 28 1004.2 - - - - - - - - -
10/09:30am 28.4 SSE 23 27 1004.6 - - - - - - - - -
10/09:00am 28.4 SSE 22 27 1004.5 - - - - - - - - -
10/08:30am 28.4 SSE 23 27 1004.6 - - - - - - - - -
10/08:00am 28.6 SSE 23 28 1004.3 - - - - - - - - -
10/07:30am 28.8 SSE 24 28 1004.0 - - - - - - - - -
10/07:00am 28.6 SSE 23 28 1003.6 - - - - - - - - -
10/06:30am 28.7 SSE 21 26 1003.6 - - - - - - - - -
10/06:00am 28.1 SSE 21 27 1003.4 - - - - - - - - -
10/05:30am 28.2 SSE 22 26 1002.7 - - - - - - - - -
10/05:00am 28.6 SSE 22 25 1002.7 - - - - - - - - -
10/04:30am 28.4 SSE 23 27 1002.1 - - - - - - - - -
10/04:00am 28.3 SSE 23 26 1002.0 - - - - - - - - -
10/03:30am 28.2 SSE 23 27 1002.2 - - - - - - - - -
10/03:00am 28.3 SSE 24 28 1002.2 - - - - - - - - -
10/02:30am 28.3 SSE 23 26 1002.5 - - - - - - - - -
10/02:00am 28.5 SSE 24 28 1002.6 - - - - - - - - -
10/01:30am 28.1 SSE 23 27 1002.7 - - - - - - - - -
10/01:00am 28.2 SSE 26 29 1003.1 - - - - - - - - -
10/12:30am 28.6 SSE 22 26 1003.5 - - - - - - - - -
10/12:00am 28.7 SSE 22 26 1004.2 - - - - - - - - -
 
Date/Time
EST
Temp

°C
Wind Pressure Rain
since 9am
mm
Weather Cloud Vis
km
Sea
Height
m
Swell
Dir
 
Speed
knots
Gust
knots
hPa Trend Height
m
Period
s
Dir
09/11:30pm 28.5 SSE 24 28 1004.2 - - - - - - - - -
09/11:00pm 28.7 SSE 24 29 1004.7 - - - - - - - - -
09/10:30pm 28.1 SSE 23 28 1004.9 - - - - - - - - -
09/10:04pm 28.0 SE 23 33 1005.3 - - - - - - - - -
09/10:00pm 27.3 SE 24 28 1005.3 - - - - - - - - -
09/09:50pm 27.6 SE 18 29 1005.3 - - - - - - - - -
09/09:30pm 27.0 SSE 20 27 1005.4 - - - - - - - - -
09/09:00pm 27.3 SSE 17 25 1005.6 - - - - - - - - -
09/08:48pm 28.0 SE 15 28 1005.4 - - - - - - - - -
09/08:30pm 28.1 SE 16 19 1005.5 - - - - - - - - -
09/08:00pm 27.5 ESE 18 23 1005.2 - - - - - - - - -
09/07:30pm 27.9 SE 18 23 1004.9 - - - - - - - - -
09/07:00pm 27.5 SE 17 21 1004.7 - - - - - - - - -
09/06:30pm 27.3 SSE 19 23 1004.3 - - - - - - - - -
09/06:00pm 27.3 SE 19 23 1004.1 - - - - - - - - -
09/05:30pm 27.1 SE 21 25 1003.9 - - - - - - - - -
09/05:00pm 27.7 SSE 20 23 1003.6 - - - - - - - - -
09/04:30pm 27.7 SSE 18 22 1003.6 - - - - - - - - -
09/04:00pm 27.7 SSE 17 20 1003.4 - - - - - - - - -
09/03:30pm 27.7 SE 15 18 1003.2 - - - - - - - - -
09/03:00pm 27.3 SE 13 17 1003.4 - - - - - - - - -
09/02:30pm 28.6 SSE 13 17 1003.5 - - - - - - - - -
09/02:00pm 28.9 SE 12 15 1003.6 - - - - - - - - -
09/01:30pm 28.3 ESE 6 9 1004.0 - - - - - - - - -
09/01:00pm 27.8 SSE 9 13 1004.2 - - - - - - - - -
09/12:30pm 28.3 SE 10 12 1004.5 - - - - - - - - -
09/12:00pm 28.7 SSE 13 17 1005.0 - - - - - - - - -
09/11:30am 28.6 SSE 16 18 1005.2 - - - - - - - - -
09/11:00am 27.3 SSE 19 23 1005.7 - - - - - - - - -
09/10:30am 29.1 SSE 13 15 1005.9 - - - - - - - - -
09/10:00am 29.1 SE 14 16 1006.2 - - - - - - - - -
09/09:30am 28.8 SE 16 19 1005.8 - - - - - - - - -
09/09:00am 28.5 SE 16 19 1005.7 - - - - - - - - -
09/08:30am 27.8 SSE 15 18 1005.7 - - - - - - - - -
09/08:00am 27.0 SSE 18 24 1005.6 - - - - - - - - -
09/07:30am 28.0 SE 13 16 1005.2 - - - - - - - - -
09/07:00am 27.5 SSE 14 18 1004.9 - - - - - - - - -
09/06:30am 27.8 S 7 11 1005.0 - - - - - - - - -
09/06:00am 27.0 S 11 17 1004.5 - - - - - - - - -
09/05:30am 27.5 SSE 18 22 1004.2 - - - - - - - - -
09/05:00am 28.4 SSE 17 19 1004.1 - - - - - - - - -
09/04:30am 27.8 SSE 15 19 1004.2 - - - - - - - - -
09/04:00am 28.3 SSE 15 18 1004.2 - - - - - - - - -
09/03:30am 28.4 SSE 14 16 1004.5 - - - - - - - - -
09/03:00am 28.1 SSE 13 15 1004.4 - - - - - - - - -
09/02:30am 27.7 SE 13 15 1004.1 - - - - - - - - -
09/02:00am 27.4 SE 14 16 1004.1 - - - - - - - - -
09/01:30am 27.1 SE 16 18 1004.6 - - - - - - - - -
09/01:00am 27.7 SE 18 21 1004.9 - - - - - - - - -
09/12:30am 28.3 SSE 16 21 1005.3 - - - - - - - - -
09/12:00am 28.3 SSE 12 14 1005.8 - - - - - - - - -
 
Date/Time
EST
Temp

°C
Wind Pressure Rain
since 9am
mm
Weather Cloud Vis
km
Sea
Height
m
Swell
Dir
 
Speed
knots
Gust
knots
hPa Trend Height
m
Period
s
Dir
08/11:30pm 28.4 S 8 10 1006.4 - - - - - - - - -
08/11:00pm 28.2 SSW 7 8 1006.8 - - - - - - - - -
08/10:30pm 28.1 S 4 5 1006.9 - - - - - - - - -
08/10:00pm 27.9 SW 4 6 1007.1 - - - - - - - - -
08/09:30pm 27.9 WSW 4 5 1007.0 - - - - - - - - -
08/09:00pm 28.0 W 9 11 1006.7 - - - - - - - - -

Other Formats:

Comma delimited format used in spreadsheet applications
http://www.bom.gov.au/fwo/IDQ60701/IDQ60701.94293.axf

JavaScript Object Notation format (JSON) in row-major order
http://www.bom.gov.au/fwo/IDQ60701/IDQ60701.94293.json